Time;durP1;ratioP1;P1;durP2;ratioP2;P2;SDS_P1;SDS_P2;PMS_P1;PMS_P2;Temp;Humidity;BMP_temperature;BMP_pressure;BME280_temperature;BME280_humidity;BME280_pressure;Samples;Min_cycle;Max_cycle;Signal;HPM_P1;HPM_P2
2024/04/08 00:02:27;;;;;;;6.33;4.50;;;12.20;1.00;;;;;;5064095;28;20210;-67
2024/04/08 00:05:14;;;;;;;8.50;4.70;;;12.20;34.60;;;;;;5056451;28;20276;-67
2024/04/08 00:08:01;;;;;;;10.57;4.40;;;12.20;1.00;;;;;;5067352;28;20203;-67
2024/04/08 00:10:48;;;;;;;6.80;3.97;;;12.30;1.00;;;;;;5070823;28;20277;-67
2024/04/08 00:13:37;;;;;;;5.87;3.67;;;12.20;1.00;;;;;;5071598;28;20686;-67
2024/04/08 00:16:25;;;;;;;7.43;4.47;;;12.20;34.80;;;;;;5053170;28;20225;-67
2024/04/08 00:19:12;;;;;;;7.47;4.20;;;12.20;3.20;;;;;;5054504;28;20211;-67
2024/04/08 00:21:59;;;;;;;7.43;4.30;;;12.10;68.90;;;;;;5063929;28;20200;-67
2024/04/08 00:24:45;;;;;;;7.10;3.97;;;12.10;99.90;;;;;;5056611;28;20205;-67
2024/04/08 00:27:32;;;;;;;6.80;4.00;;;12.20;99.90;;;;;;5061685;28;20213;-67
2024/04/08 00:30:19;;;;;;;8.83;4.10;;;12.20;99.90;;;;;;5058386;28;20205;-67
2024/04/08 00:33:07;;;;;;;8.43;4.30;;;12.00;50.40;;;;;;5058904;28;20193;-67
2024/04/08 00:35:53;;;;;;;8.10;5.00;;;12.00;99.90;;;;;;5070703;28;20248;-67
2024/04/08 00:38:41;;;;;;;11.87;4.97;;;12.10;99.90;;;;;;5064854;28;20232;-67
2024/04/08 00:41:27;;;;;;;8.83;4.43;;;12.10;1.00;;;;;;5068226;28;20274;-67
2024/04/08 00:44:14;;;;;;;9.33;4.50;;;12.00;1.00;;;;;;5062136;28;20201;-67
2024/04/08 00:47:00;;;;;;;8.40;4.20;;;12.00;99.90;;;;;;5063290;28;20193;-68
2024/04/08 00:49:49;;;;;;;8.93;4.87;;;11.90;18.90;;;;;;5064565;28;20204;-67
2024/04/08 00:52:35;;;;;;;11.93;5.00;;;11.90;99.90;;;;;;5056408;28;20204;-67
2024/04/08 00:55:22;;;;;;;8.43;4.30;;;11.80;1.00;;;;;;5060545;28;20243;-67
2024/04/08 00:58:09;;;;;;;7.73;4.67;;;11.90;99.90;;;;;;5066775;28;20723;-67
2024/04/08 01:00:56;;;;;;;7.23;4.30;;;11.80;99.90;;;;;;5057934;28;20283;-67
2024/04/08 01:03:43;;;;;;;10.97;5.20;;;11.80;1.00;;;;;;5060168;28;20275;-68
2024/04/08 01:06:32;;;;;;;8.57;4.80;;;11.80;1.00;;;;;;5068830;28;20196;-67
2024/04/08 01:09:18;;;;;;;8.03;4.67;;;11.70;1.00;;;;;;5065716;28;20729;-67
2024/04/08 01:12:05;;;;;;;7.77;4.57;;;11.70;1.00;;;;;;5057999;28;20201;-67
2024/04/08 01:14:52;;;;;;;11.07;4.33;;;11.60;30.20;;;;;;5066008;28;20204;-67
2024/04/08 01:17:39;;;;;;;10.27;4.50;;;11.70;1.00;;;;;;5063626;28;20259;-67
2024/04/08 01:20:25;;;;;;;7.17;4.43;;;11.70;1.00;;;;;;5065900;28;20207;-67
2024/04/08 01:23:14;;;;;;;7.37;4.57;;;11.70;1.00;;;;;;5055040;28;20237;-67
2024/04/08 01:26:01;;;;;;;9.57;4.47;;;11.70;1.00;;;;;;5069105;28;20203;-67
2024/04/08 01:28:50;;;;;;;8.83;4.70;;;11.70;1.00;;;;;;5061649;28;20213;-67
2024/04/08 01:31:36;;;;;;;7.10;3.93;;;11.60;1.00;;;;;;5061969;28;20206;-67
2024/04/08 01:34:24;;;;;;;9.37;4.23;;;11.60;99.90;;;;;;5063575;28;20240;-68
2024/04/08 01:37:10;;;;;;;7.97;3.77;;;11.50;1.00;;;;;;5069663;28;20307;-67
2024/04/08 01:39:57;;;;;;;8.67;4.47;;;11.50;99.90;;;;;;5068077;28;20239;-67
2024/04/08 01:42:45;;;;;;;7.60;4.57;;;11.50;1.00;;;;;;5065502;28;20205;-67
2024/04/08 01:45:32;;;;;;;9.63;4.37;;;11.50;1.00;;;;;;5067074;28;20200;-68
2024/04/08 01:48:19;;;;;;;8.40;4.57;;;11.50;1.00;;;;;;5061929;28;20717;-67
2024/04/08 01:51:06;;;;;;;11.20;4.90;;;11.50;99.90;;;;;;5065462;28;20200;-67
2024/04/08 01:53:52;;;;;;;9.50;5.17;;;11.40;1.00;;;;;;5068811;28;20203;-68
2024/04/08 01:56:39;;;;;;;9.60;4.90;;;11.40;1.00;;;;;;5060093;28;20301;-67
2024/04/08 01:59:27;;;;;;;10.30;4.80;;;11.30;1.00;;;;;;5064757;28;20207;-67
2024/04/08 02:02:14;;;;;;;8.63;4.70;;;11.30;1.00;;;;;;5063902;28;20570;-67
2024/04/08 02:05:00;;;;;;;9.97;4.23;;;11.30;1.00;;;;;;5064575;28;20212;-69
2024/04/08 02:07:50;;;;;;;7.83;4.40;;;11.20;1.00;;;;;;5066975;28;20623;-68
2024/04/08 02:10:36;;;;;;;9.97;4.87;;;11.10;99.90;;;;;;5066264;28;20197;-67
2024/04/08 02:13:23;;;;;;;11.20;4.80;;;11.10;1.00;;;;;;5066431;28;20242;-67
2024/04/08 02:16:11;;;;;;;8.67;4.53;;;11.20;99.90;;;;;;5064919;28;20749;-67
2024/04/08 02:18:58;;;;;;;8.87;4.70;;;11.20;1.00;;;;;;5060231;28;20230;-67
2024/04/08 02:21:44;;;;;;;7.77;5.03;;;11.20;99.90;;;;;;5064303;28;20192;-67
2024/04/08 02:24:31;;;;;;;13.90;4.73;;;11.10;39.50;;;;;;5060949;28;20287;-68
2024/04/08 02:27:18;;;;;;;7.27;4.70;;;11.00;99.90;;;;;;5063133;28;20203;-68
2024/04/08 02:30:06;;;;;;;7.87;5.03;;;10.90;99.90;;;;;;5063322;28;20201;-68
2024/04/08 02:32:53;;;;;;;9.03;4.67;;;10.90;1.00;;;;;;5066095;28;20650;-68
2024/04/08 02:35:41;;;;;;;9.40;4.80;;;10.90;1.00;;;;;;5066650;28;20192;-67
2024/04/08 02:38:28;;;;;;;8.00;4.80;;;10.90;99.90;;;;;;5058428;28;20227;-68
2024/04/08 02:41:14;;;;;;;8.07;4.70;;;10.80;99.90;;;;;;5061403;28;20237;-68
2024/04/08 02:44:01;;;;;;;9.00;4.57;;;10.80;1.00;;;;;;5049626;28;20200;-67
2024/04/08 02:46:47;;;;;;;11.47;4.63;;;10.80;1.00;;;;;;5063240;28;20200;-68
2024/04/08 02:49:36;;;;;;;10.70;4.80;;;10.80;1.00;;;;;;5062981;28;20290;-67
2024/04/08 02:52:22;;;;;;;11.40;4.47;;;10.80;1.00;;;;;;5056921;28;20585;-67
2024/04/08 02:55:09;;;;;;;8.03;4.27;;;10.90;1.00;;;;;;5062167;28;20203;-67
2024/04/08 02:57:56;;;;;;;7.93;4.07;;;11.00;1.00;;;;;;5068334;28;20219;-67
2024/04/08 03:00:43;;;;;;;13.90;4.73;;;10.90;1.00;;;;;;5068302;28;20286;-67
2024/04/08 03:03:30;;;;;;;6.40;3.83;;;10.90;99.90;;;;;;5061911;28;20245;-68
2024/04/08 03:06:18;;;;;;;9.93;4.50;;;10.90;1.00;;;;;;5062988;28;20213;-68
2024/04/08 03:09:05;;;;;;;9.03;4.43;;;10.90;99.90;;;;;;5059969;28;20647;-68
2024/04/08 03:11:52;;;;;;;10.20;4.50;;;11.00;99.90;;;;;;5064331;28;20207;-68
2024/04/08 03:14:39;;;;;;;5.73;4.17;;;11.00;1.00;;;;;;5064119;28;20240;-68
2024/04/08 03:17:25;;;;;;;9.73;4.60;;;11.10;99.90;;;;;;5054753;28;20223;-67
2024/04/08 03:20:12;;;;;;;7.97;4.40;;;11.10;90.10;;;;;;5063326;28;20570;-67
2024/04/08 03:23:00;;;;;;;9.90;4.50;;;11.10;1.00;;;;;;5057746;28;20207;-68
2024/04/08 03:25:47;;;;;;;9.53;4.37;;;11.10;1.00;;;;;;5050775;28;20195;-68
2024/04/08 03:28:34;;;;;;;10.00;4.40;;;11.10;1.00;;;;;;5061502;28;20909;-67
2024/04/08 03:31:21;;;;;;;8.87;4.40;;;11.00;1.00;;;;;;5066128;28;20196;-68
2024/04/08 03:34:07;;;;;;;9.33;4.53;;;11.00;1.00;;;;;;5058520;28;20213;-68
2024/04/08 03:36:54;;;;;;;9.77;4.60;;;11.00;54.10;;;;;;5071988;28;20831;-68
2024/04/08 03:39:43;;;;;;;7.60;4.27;;;11.10;99.90;;;;;;5065547;28;20295;-68
2024/04/08 03:42:30;;;;;;;9.70;4.87;;;11.30;1.00;;;;;;5064447;28;20213;-68
2024/04/08 03:45:17;;;;;;;10.73;4.50;;;11.30;1.00;;;;;;5065553;28;20199;-68
2024/04/08 03:48:05;;;;;;;9.43;4.37;;;11.30;1.00;;;;;;5069602;28;20211;-68
2024/04/08 03:50:51;;;;;;;8.97;4.13;;;11.30;99.90;;;;;;5066642;28;20202;-68
2024/04/08 03:53:38;;;;;;;13.73;4.63;;;11.30;99.90;;;;;;5068129;28;20196;-68
2024/04/08 03:56:26;;;;;;;8.37;4.53;;;11.40;1.00;;;;;;5063013;28;20280;-68
2024/04/08 03:59:13;;;;;;;7.37;4.07;;;11.50;1.00;;;;;;5059723;28;20269;-68
2024/04/08 04:01:59;;;;;;;10.70;4.20;;;11.50;1.00;;;;;;5064864;28;20208;-68
2024/04/08 04:04:47;;;;;;;6.77;4.23;;;11.60;99.90;;;;;;5055637;28;20278;-68
2024/04/08 04:07:33;;;;;;;8.50;4.00;;;11.60;99.70;;;;;;5059962;28;20234;-68
2024/04/08 04:10:20;;;;;;;7.63;3.83;;;11.60;1.00;;;;;;5062100;28;20201;-68
2024/04/08 04:13:08;;;;;;;8.30;4.30;;;11.70;1.00;;;;;;5059905;28;20204;-68
2024/04/08 04:15:55;;;;;;;6.03;4.03;;;11.70;1.00;;;;;;5066640;28;20199;-68
2024/04/08 04:18:41;;;;;;;7.30;3.73;;;11.80;99.90;;;;;;5065896;28;20220;-68
2024/04/08 04:21:28;;;;;;;7.47;4.43;;;11.80;99.90;;;;;;5064235;28;20666;-68
2024/04/08 04:24:14;;;;;;;6.97;4.10;;;11.80;99.90;;;;;;5061887;28;20227;-68
2024/04/08 04:27:02;;;;;;;5.80;3.50;;;11.80;99.90;;;;;;5065030;28;20196;-67
2024/04/08 04:29:49;;;;;;;7.77;4.23;;;12.00;1.00;;;;;;5066500;28;20199;-67
2024/04/08 04:32:37;;;;;;;6.73;4.10;;;11.90;1.00;;;;;;5064059;28;20207;-66
2024/04/08 04:35:23;;;;;;;16.33;4.37;;;12.00;1.00;;;;;;5055156;28;20204;-66
2024/04/08 04:38:11;;;;;;;9.50;4.00;;;11.90;1.00;;;;;;5068870;28;20738;-66
2024/04/08 04:41:00;;;;;;;9.60;3.90;;;11.90;80.00;;;;;;5068434;28;20232;-66
2024/04/08 04:43:47;;;;;;;9.17;4.40;;;12.00;3.50;;;;;;5069152;28;20222;-66
2024/04/08 04:46:35;;;;;;;8.60;4.27;;;12.10;99.90;;;;;;5060910;28;20587;-66
2024/04/08 04:49:22;;;;;;;10.47;4.50;;;12.20;59.70;;;;;;5061298;28;20239;-67
2024/04/08 04:52:13;;;;;;;9.17;4.60;;;12.40;1.00;;;;;;5063770;28;20227;-67
2024/04/08 04:55:00;;;;;;;8.77;4.53;;;12.40;99.90;;;;;;5066807;28;20689;-67
2024/04/08 04:57:46;;;;;;;9.37;3.97;;;12.50;1.00;;;;;;5067936;28;20708;-68
2024/04/08 05:00:36;;;;;;;9.17;4.00;;;12.50;1.00;;;;;;5060400;28;20746;-67
2024/04/08 05:03:23;;;;;;;9.40;5.50;;;12.60;1.00;;;;;;5065711;28;20670;-67
2024/04/08 05:06:10;;;;;;;8.10;4.40;;;12.70;1.00;;;;;;5069157;28;20209;-67
2024/04/08 05:08:58;;;;;;;7.37;3.97;;;12.60;1.00;;;;;;5058915;28;20189;-67
2024/04/08 05:11:45;;;;;;;7.63;4.77;;;12.70;1.00;;;;;;5062294;28;20798;-66
2024/04/08 05:14:32;;;;;;;6.83;3.70;;;12.80;99.90;;;;;;5069493;28;20197;-67
2024/04/08 05:17:19;;;;;;;11.30;5.30;;;13.00;99.90;;;;;;5065381;28;20779;-67
2024/04/08 05:20:09;;;;;;;9.30;3.57;;;13.00;1.00;;;;;;5067741;28;20205;-66
2024/04/08 05:22:57;;;;;;;7.80;3.50;;;13.10;99.90;;;;;;5062341;28;20399;-66
2024/04/08 05:25:44;;;;;;;8.80;4.00;;;13.30;1.00;;;;;;5070125;28;20222;-67
2024/04/08 05:28:31;;;;;;;6.30;3.17;;;13.50;1.00;;;;;;5060295;28;20196;-67
2024/04/08 05:31:17;;;;;;;6.17;3.50;;;13.60;1.00;;;;;;5060702;28;20212;-67
2024/04/08 05:34:04;;;;;;;5.83;3.07;;;13.70;1.00;;;;;;5069814;28;20240;-66
2024/04/08 05:36:52;;;;;;;7.70;3.50;;;13.90;1.00;;;;;;5063791;28;20571;-66
2024/04/08 05:39:39;;;;;;;6.57;3.60;;;13.90;1.00;;;;;;5057219;28;20248;-66
2024/04/08 05:42:26;;;;;;;6.03;3.77;;;14.10;1.00;;;;;;5065068;28;20205;-67
2024/04/08 05:45:13;;;;;;;9.47;3.27;;;14.20;99.90;;;;;;5072730;28;20326;-66
2024/04/08 05:47:59;;;;;;;7.30;3.53;;;14.30;99.90;;;;;;5059197;28;20215;-67
2024/04/08 05:50:47;;;;;;;7.50;3.90;;;14.40;99.90;;;;;;5068631;28;20214;-66
2024/04/08 05:53:35;;;;;;;5.43;3.00;;;14.50;4.70;;;;;;5064314;28;20212;-67
2024/04/08 05:56:22;;;;;;;6.40;3.73;;;14.60;48.90;;;;;;5052524;28;20251;-66
2024/04/08 05:59:08;;;;;;;9.07;3.20;;;14.60;1.00;;;;;;5055734;28;20262;-66
2024/04/08 06:01:55;;;;;;;5.33;3.30;;;14.70;99.90;;;;;;5061334;28;20201;-66
2024/04/08 06:04:41;;;;;;;6.53;3.10;;;14.70;99.90;;;;;;5065507;28;20199;-67
2024/04/08 06:07:29;;;;;;;7.97;2.90;;;14.80;1.00;;;;;;5061700;28;20184;-66
2024/04/08 06:10:17;;;;;;;5.10;3.37;;;14.80;99.90;;;;;;5055108;28;20588;-67
2024/04/08 06:13:05;;;;;;;4.43;2.80;;;14.90;1.00;;;;;;5066570;28;20207;-66
2024/04/08 06:15:51;;;;;;;5.70;2.97;;;15.10;1.00;;;;;;5052375;28;20216;-66
2024/04/08 06:18:38;;;;;;;5.13;2.90;;;15.20;1.00;;;;;;5059960;28;20223;-67
2024/04/08 06:21:24;;;;;;;9.07;3.10;;;15.40;1.00;;;;;;5062373;28;20204;-66
2024/04/08 06:24:11;;;;;;;8.53;3.63;;;15.60;1.00;;;;;;5057762;28;20273;-67
2024/04/08 06:27:00;;;;;;;5.40;2.70;;;15.90;1.00;;;;;;5067589;28;20204;-68
2024/04/08 06:29:46;;;;;;;4.73;2.80;;;16.00;1.00;;;;;;5059669;28;20196;-68
2024/04/08 06:32:35;;;;;;;4.10;2.70;;;16.20;99.90;;;;;;5063849;28;20202;-67
2024/04/08 06:35:21;;;;;;;11.40;2.93;;;16.50;1.00;;;;;;5056347;28;20274;-67
2024/04/08 06:38:08;;;;;;;5.87;2.77;;;16.70;99.90;;;;;;5071882;28;20277;-67
2024/04/08 06:40:54;;;;;;;7.47;2.97;;;17.00;70.60;;;;;;5058311;28;20251;-67
2024/04/08 06:43:43;;;;;;;4.97;2.50;;;17.20;99.90;;;;;;5063476;28;20194;-67
2024/04/08 06:46:29;;;;;;;5.70;2.80;;;17.40;1.00;;;;;;5059852;28;20565;-66
2024/04/08 06:49:16;;;;;;;4.70;2.70;;;17.60;1.00;;;;;;5051645;28;20643;-67
2024/04/08 06:52:03;;;;;;;7.37;2.63;;;17.80;1.00;;;;;;5055455;28;20217;-67
2024/04/08 06:54:50;;;;;;;5.20;2.30;;;18.00;99.90;;;;;;5061048;28;20277;-66
2024/04/08 06:57:37;;;;;;;8.23;2.90;;;18.30;1.00;;;;;;5061327;28;20221;-66
2024/04/08 07:00:25;;;;;;;6.23;2.67;;;18.40;1.00;;;;;;5067951;28;20260;-66
2024/04/08 07:03:11;;;;;;;8.50;2.70;;;18.60;1.00;;;;;;5064328;28;20535;-67
2024/04/08 07:05:59;;;;;;;5.63;2.50;;;18.70;1.00;;;;;;5052435;28;20202;-67
2024/04/08 07:08:46;;;;;;;4.53;2.50;;;18.90;99.90;;;;;;5061106;28;20281;-67
2024/04/08 07:11:32;;;;;;;7.47;1.90;;;19.10;99.90;;;;;;5056477;28;20212;-67
2024/04/08 07:14:19;;;;;;;4.73;2.40;;;19.30;1.00;;;;;;5064592;28;20196;-67
2024/04/08 07:17:07;;;;;;;2.97;1.90;;;19.40;1.00;;;;;;5066388;28;20211;-67
2024/04/08 07:19:54;;;;;;;3.80;2.00;;;19.50;50.60;;;;;;5075680;28;20233;-67
2024/04/08 07:22:41;;;;;;;6.77;2.47;;;19.60;99.90;;;;;;5061087;28;20203;-67
2024/04/08 07:25:28;;;;;;;2.73;2.13;;;19.70;1.00;;;;;;5071184;28;20754;-67
2024/04/08 07:28:14;;;;;;;4.90;2.40;;;19.80;1.00;;;;;;5062200;28;20593;-67
2024/04/08 07:31:01;;;;;;;7.37;2.07;;;19.90;99.90;;;;;;5065537;28;20552;-67
2024/04/08 07:33:49;;;;;;;5.00;2.20;;;20.00;1.00;;;;;;5065653;28;20567;-67
2024/04/08 07:36:36;;;;;;;7.33;2.87;;;20.20;1.00;;;;;;5063057;28;20682;-67
2024/04/08 07:39:22;;;;;;;5.30;2.30;;;20.20;99.40;;;;;;5062973;28;20235;-67
2024/04/08 07:42:09;;;;;;;10.47;2.53;;;20.40;1.00;;;;;;5062323;28;20592;-67
2024/04/08 07:44:56;;;;;;;5.97;2.20;;;20.60;99.90;;;;;;5064166;28;20204;-67
2024/04/08 07:47:44;;;;;;;9.83;2.43;;;20.80;99.90;;;;;;5065797;28;20854;-67
2024/04/08 07:50:31;;;;;;;6.73;2.40;;;20.70;99.90;;;;;;5069282;28;20205;-67
2024/04/08 07:53:19;;;;;;;5.27;2.57;;;20.70;1.00;;;;;;5069999;28;20193;-67
2024/04/08 07:56:05;;;;;;;4.17;2.20;;;20.80;99.90;;;;;;5067957;28;20694;-68
2024/04/08 07:58:52;;;;;;;3.77;2.40;;;21.20;99.90;;;;;;5069281;28;20695;-68
2024/04/08 08:01:38;;;;;;;6.90;2.40;;;21.40;99.90;;;;;;5067699;28;20192;-68
2024/04/08 08:04:26;;;;;;;6.63;2.57;;;21.70;86.30;;;;;;5063778;28;20292;-68
2024/04/08 08:07:13;;;;;;;5.63;2.57;;;21.90;99.90;;;;;;5059952;28;20212;-68
2024/04/08 08:10:00;;;;;;;8.67;2.97;;;21.90;99.90;;;;;;5059038;28;20277;-68
2024/04/08 08:12:48;;;;;;;4.73;2.70;;;22.20;99.90;;;;;;5064729;28;20226;-68
2024/04/08 08:15:35;;;;;;;5.77;2.60;;;22.50;99.90;;;;;;5068669;28;20205;-68
2024/04/08 08:18:22;;;;;;;4.17;2.37;;;22.20;99.90;;;;;;5068137;28;20725;-68
2024/04/08 08:21:09;;;;;;;7.77;2.80;;;22.60;44.10;;;;;;5064610;28;20679;-68
2024/04/08 08:23:58;;;;;;;4.50;2.00;;;22.70;1.00;;;;;;5067287;28;20197;-68
2024/04/08 08:26:46;;;;;;;6.10;2.63;;;23.00;99.90;;;;;;5064235;28;20201;-68
2024/04/08 08:29:33;;;;;;;5.50;2.20;;;23.20;1.00;;;;;;5063305;28;20738;-69
2024/04/08 08:32:21;;;;;;;5.57;2.30;;;23.00;1.00;;;;;;5065764;28;20200;-67
2024/04/08 08:35:08;;;;;;;10.50;2.87;;;23.20;1.00;;;;;;5064415;28;20260;-68
2024/04/08 08:37:54;;;;;;;5.90;1.97;;;23.80;1.00;;;;;;5068731;28;20197;-67
2024/04/08 08:40:45;;;;;;;2.93;1.77;;;23.60;1.00;;;;;;5068348;28;20259;-68
2024/04/08 08:43:31;;;;;;;5.60;1.77;;;23.20;1.00;;;;;;5065192;28;20216;-68
2024/04/08 08:46:22;;;;;;;3.47;1.80;;;23.40;1.00;;;;;;5067550;28;20204;-67
2024/04/08 08:49:08;;;;;;;4.83;1.70;;;23.40;99.90;;;;;;5067153;28;20188;-68
2024/04/08 08:51:55;;;;;;;3.57;1.77;;;23.60;99.90;;;;;;5063642;28;20200;-67
2024/04/08 08:54:41;;;;;;;3.90;1.80;;;23.50;99.90;;;;;;5066530;28;20196;-68
2024/04/08 08:57:30;;;;;;;5.90;1.70;;;23.80;99.90;;;;;;5067705;28;20279;-68
2024/04/08 09:00:18;;;;;;;6.50;1.80;;;23.80;99.90;;;;;;5066260;28;20204;-67
2024/04/08 09:03:05;;;;;;;4.37;1.57;;;23.80;99.90;;;;;;5063818;28;20299;-67
2024/04/08 09:05:54;;;;;;;6.78;2.13;;;23.90;99.90;;;;;;5067550;28;20192;-68
2024/04/08 09:08:42;;;;;;;3.80;1.80;;;24.20;99.90;;;;;;5069404;28;20276;-68
2024/04/08 09:11:28;;;;;;;5.38;2.13;;;24.40;99.90;;;;;;5065679;28;20200;-68
2024/04/08 09:14:17;;;;;;;4.47;1.70;;;24.60;99.90;;;;;;5063308;28;20212;-68
2024/04/08 09:17:06;;;;;;;3.17;1.63;;;24.60;99.90;;;;;;5062145;28;20209;-67
2024/04/08 09:19:53;;;;;;;5.77;1.90;;;24.30;99.90;;;;;;5063658;28;20221;-68
2024/04/08 09:22:40;;;;;;;7.65;1.80;;;24.30;99.90;;;;;;5067484;28;20675;-68
2024/04/08 09:25:27;;;;;;;3.47;1.73;;;24.50;99.90;;;;;;5066911;28;20549;-68
2024/04/08 09:28:14;;;;;;;4.18;1.63;;;24.90;99.90;;;;;;5065882;28;20196;-67
2024/04/08 09:31:02;;;;;;;10.43;1.70;;;24.70;99.90;;;;;;5062854;28;20601;-67
2024/04/08 09:33:49;;;;;;;5.18;1.60;;;24.60;99.90;;;;;;5065683;28;20228;-67
2024/04/08 09:36:36;;;;;;;4.57;1.60;;;24.80;99.90;;;;;;5068826;28;20200;-67
2024/04/08 09:39:23;;;;;;;4.10;1.88;;;25.50;99.90;;;;;;5065380;28;20719;-67
2024/04/08 09:42:10;;;;;;;3.15;1.63;;;25.50;99.90;;;;;;5066683;28;20212;-67
2024/04/08 09:44:57;;;;;;;10.00;2.00;;;25.50;99.90;;;;;;5065588;28;20204;-68
2024/04/08 09:47:46;;;;;;;3.55;1.67;;;25.30;99.90;;;;;;5061019;28;20539;-67
2024/04/08 09:50:32;;;;;;;3.28;1.60;;;25.00;99.90;;;;;;5062648;28;20208;-67
2024/04/08 09:53:20;;;;;;;7.45;1.90;;;24.80;99.90;;;;;;5064036;28;20200;-67
2024/04/08 09:56:11;;;;;;;4.60;1.60;;;25.00;99.90;;;;;;5051391;28;20207;-67
2024/04/08 09:59:04;;;;;;;8.48;1.40;;;25.50;99.90;;;;;;5064534;28;20220;-66
2024/04/08 10:01:51;;;;;;;9.73;1.60;;;25.20;99.90;;;;;;5058444;28;20219;-66
2024/04/08 10:04:40;;;;;;;4.47;1.88;;;25.40;99.90;;;;;;5059492;28;20988;-67
2024/04/08 10:07:26;;;;;;;3.95;1.60;;;25.50;99.90;;;;;;5066565;28;20205;-66
2024/04/08 10:10:14;;;;;;;3.88;1.67;;;25.80;99.90;;;;;;5065187;28;20220;-66
2024/04/08 10:13:00;;;;;;;9.18;1.30;;;25.70;99.90;;;;;;5066287;28;20203;-67
2024/04/08 10:15:47;;;;;;;3.85;1.60;;;25.50;99.90;;;;;;5053453;28;20201;-67
2024/04/08 10:18:33;;;;;;;5.45;1.65;;;26.40;99.90;;;;;;5054964;28;20212;-66
2024/04/08 10:21:22;;;;;;;2.55;1.70;;;26.50;99.90;;;;;;5061604;28;20197;-66
2024/04/08 10:24:26;;;;;;;7.93;1.67;;;26.40;99.90;;;;;;5066034;28;20198;-67
2024/04/08 10:27:14;;;;;;;3.47;1.60;;;26.40;99.90;;;;;;5059618;28;20211;-66
2024/04/08 10:30:00;;;;;;;2.80;1.50;;;26.50;99.90;;;;;;5065573;28;20211;-67
2024/04/08 10:32:47;;;;;;;7.57;1.70;;;27.10;99.90;;;;;;5064318;28;20205;-67
2024/04/08 10:35:33;;;;;;;2.13;1.20;;;26.30;99.90;;;;;;5062982;28;20201;-66
2024/04/08 10:38:22;;;;;;;4.03;1.30;;;26.00;99.90;;;;;;5065256;28;20738;-67
2024/04/08 10:41:08;;;;;;;2.15;0.95;;;26.10;99.90;;;;;;5059564;28;20289;-67
2024/04/08 10:43:56;;;;;;;2.20;1.40;;;25.70;99.90;;;;;;5058631;28;20575;-67
2024/04/08 10:46:42;;;;;;;2.58;0.93;;;25.70;99.90;;;;;;5063621;28;20201;-66
2024/04/08 10:49:29;;;;;;;3.28;1.23;;;25.70;99.90;;;;;;5057743;28;20239;-66
2024/04/08 10:52:15;;;;;;;5.13;1.30;;;25.60;99.90;;;;;;5061912;28;20204;-66
2024/04/08 10:55:05;;;;;;;2.97;1.10;;;26.20;99.90;;;;;;5059896;28;20196;-66
2024/04/08 10:57:51;;;;;;;5.82;1.42;;;26.30;99.90;;;;;;5062215;28;20203;-66
2024/04/08 11:00:38;;;;;;;3.28;1.15;;;26.00;99.90;;;;;;5064301;28;20236;-66
2024/04/08 11:03:24;;;;;;;2.15;1.27;;;26.10;99.90;;;;;;5062792;28;20212;-66
2024/04/08 11:06:12;;;;;;;3.25;0.90;;;26.20;99.90;;;;;;5054403;28;20557;-66
2024/04/08 11:08:58;;;;;;;3.78;1.30;;;26.50;99.90;;;;;;5058224;28;20192;-67
2024/04/08 11:11:47;;;;;;;6.15;1.40;;;26.40;99.90;;;;;;5065722;28;20200;-66
2024/04/08 11:14:33;;;;;;;3.22;1.23;;;26.60;99.90;;;;;;5055880;28;20212;-67
2024/04/08 11:17:25;;;;;;;4.00;1.13;;;26.40;99.90;;;;;;5053622;28;20239;-67
2024/04/08 11:20:12;;;;;;;3.05;1.30;;;27.00;99.90;;;;;;5054887;28;20217;-67
2024/04/08 11:23:03;;;;;;;2.47;1.00;;;26.80;99.90;;;;;;5057460;28;20236;-67
2024/04/08 11:25:50;;;;;;;2.30;1.30;;;26.90;99.90;;;;;;5059209;28;20693;-67
2024/04/08 11:28:39;;;;;;;1.73;1.00;;;27.00;99.90;;;;;;5062386;28;20185;-67
2024/04/08 11:31:25;;;;;;;1.85;1.10;;;26.80;99.90;;;;;;5065992;28;20671;-66
2024/04/08 11:34:12;;;;;;;3.05;1.60;;;26.30;99.90;;;;;;5065531;28;20193;-66
2024/04/08 11:36:59;;;;;;;4.35;1.27;;;26.50;99.90;;;;;;5062555;28;20550;-66
2024/04/08 11:39:46;;;;;;;6.68;1.20;;;27.00;99.90;;;;;;5065028;28;20933;-67
2024/04/08 11:42:32;;;;;;;3.60;1.50;;;27.50;99.90;;;;;;5064791;28;20203;-67
2024/04/08 11:45:21;;;;;;;2.85;1.27;;;26.50;99.90;;;;;;5065474;28;20188;-67
2024/04/08 11:49:56;;;;;;;3.40;1.30;;;27.20;99.90;;;;;;5519908;25;20709;-66
2024/04/08 11:52:44;;;;;;;4.63;1.10;;;28.30;99.90;;;;;;5515183;25;20685;-67
2024/04/08 11:55:33;;;;;;;3.15;1.10;;;28.00;99.90;;;;;;5502907;25;20293;-67
2024/04/08 11:58:20;;;;;;;6.57;0.95;;;27.90;99.90;;;;;;5479573;25;20291;-66
2024/04/08 12:01:09;;;;;;;4.43;1.20;;;27.80;99.90;;;;;;5505201;25;20227;-67
2024/04/08 12:03:56;;;;;;;1.17;1.08;;;27.90;99.90;;;;;;5499724;25;20610;-66
2024/04/08 12:06:49;;;;;;;2.03;1.25;;;28.40;99.90;;;;;;5500597;25;20223;-66
2024/04/08 12:09:37;;;;;;;2.58;1.10;;;27.90;99.90;;;;;;5504326;25;20276;-66
2024/04/08 12:12:26;;;;;;;2.88;1.10;;;27.70;99.90;;;;;;5483381;25;20714;-67
2024/04/08 12:15:18;;;;;;;3.90;1.48;;;27.30;99.90;;;;;;5486430;25;20737;-66
2024/04/08 12:18:08;;;;;;;3.25;1.05;;;27.50;99.90;;;;;;5482065;25;20260;-66
2024/04/08 12:20:57;;;;;;;4.55;1.13;;;27.90;99.90;;;;;;5483860;25;20223;-66
2024/04/08 12:23:53;;;;;;;4.55;1.17;;;28.20;99.90;;;;;;5502340;25;20684;-66
2024/04/08 12:26:40;;;;;;;3.72;1.45;;;27.90;99.90;;;;;;5500829;25;20231;-66
2024/04/08 12:29:29;;;;;;;4.28;1.30;;;28.30;99.90;;;;;;5506705;25;20224;-66
2024/04/08 12:32:16;;;;;;;4.47;1.50;;;28.70;99.90;;;;;;5506626;25;20225;-66
2024/04/08 12:35:07;;;;;;;6.22;1.30;;;28.40;99.90;;;;;;5503136;25;20338;-65
2024/04/08 12:37:54;;;;;;;1.63;1.10;;;28.90;99.90;;;;;;5498698;25;20314;-66
2024/04/08 12:40:46;;;;;;;1.77;1.10;;;28.20;99.90;;;;;;5465816;26;20224;-66
2024/04/08 12:43:34;;;;;;;2.22;1.17;;;28.30;99.90;;;;;;5480372;26;20293;-65
2024/04/08 12:46:23;;;;;;;3.88;1.30;;;28.40;99.90;;;;;;5465899;26;20216;-65
2024/04/08 12:49:10;;;;;;;2.40;1.20;;;28.50;99.90;;;;;;5464647;26;20276;-66
2024/04/08 12:52:00;;;;;;;6.57;1.20;;;29.20;99.90;;;;;;5468244;26;20635;-65
2024/04/08 12:54:46;;;;;;;2.63;0.98;;;28.40;99.90;;;;;;5475958;26;20235;-65
2024/04/08 12:57:38;;;;;;;3.75;1.40;;;27.90;99.90;;;;;;5471410;26;20244;-65
2024/04/08 13:00:25;;;;;;;6.30;1.45;;;27.50;99.90;;;;;;5452854;26;20229;-65
2024/04/08 13:03:14;;;;;;;2.03;1.20;;;28.90;99.90;;;;;;5459676;26;20225;-65
2024/04/08 13:06:04;;;;;;;3.00;1.10;;;29.10;99.90;;;;;;5469393;26;20283;-66
2024/04/08 13:08:50;;;;;;;3.30;1.38;;;28.90;99.90;;;;;;5455564;26;20832;-65
2024/04/08 13:11:40;;;;;;;2.13;1.10;;;29.20;99.90;;;;;;5459883;26;20333;-66
2024/04/08 13:14:32;;;;;;;2.63;1.20;;;28.70;99.90;;;;;;5460664;26;20235;-66
2024/04/08 13:17:19;;;;;;;1.92;0.90;;;28.80;99.90;;;;;;5444871;26;20275;-66
2024/04/08 13:20:09;;;;;;;1.55;1.08;;;29.10;99.90;;;;;;5453024;26;20621;-66
2024/04/08 13:22:55;;;;;;;5.10;1.10;;;29.70;99.90;;;;;;5444433;26;20283;-66
2024/04/08 13:25:45;;;;;;;1.52;0.90;;;29.10;99.90;;;;;;5444703;26;20717;-66
2024/04/08 13:28:32;;;;;;;3.13;0.98;;;30.10;99.90;;;;;;5454221;26;20225;-67
2024/04/08 13:31:24;;;;;;;1.60;1.02;;;29.80;99.90;;;;;;5438890;26;20272;-66
2024/04/08 13:34:10;;;;;;;2.33;1.00;;;29.60;99.90;;;;;;5459478;26;20231;-66
2024/04/08 13:37:00;;;;;;;3.00;1.00;;;29.50;99.90;;;;;;5416424;26;20333;-66
2024/04/08 13:39:46;;;;;;;1.20;1.00;;;30.30;99.90;;;;;;5413066;26;20304;-66
2024/04/08 13:42:37;;;;;;;2.78;0.95;;;29.80;99.90;;;;;;5453966;26;20597;-65
2024/04/08 13:45:24;;;;;;;1.15;0.80;;;28.70;99.90;;;;;;5453830;26;20315;-65
2024/04/08 13:48:16;;;;;;;4.72;1.10;;;27.90;99.90;;;;;;5450964;26;20233;-65
2024/04/08 13:51:03;;;;;;;1.73;0.98;;;28.40;99.90;;;;;;5450149;26;20300;-65
2024/04/08 13:53:53;;;;;;;3.08;0.93;;;28.70;99.90;;;;;;5450650;26;21121;-65
2024/04/08 13:56:40;;;;;;;2.15;0.98;;;28.90;99.90;;;;;;5466436;26;20228;-65
2024/04/08 13:59:29;;;;;;;4.93;0.90;;;28.70;99.90;;;;;;5451017;26;20229;-65
2024/04/08 14:02:18;;;;;;;4.20;1.02;;;28.50;99.90;;;;;;5431773;26;20283;-66
2024/04/08 14:05:08;;;;;;;2.05;0.85;;;27.90;99.90;;;;;;5446356;26;20297;-65
2024/04/08 14:07:57;;;;;;;7.03;1.25;;;27.30;99.90;;;;;;5448623;26;20229;-65
2024/04/08 14:10:44;;;;;;;3.50;1.13;;;27.50;99.90;;;;;;5437597;26;20289;-65
2024/04/08 14:13:33;;;;;;;2.80;0.90;;;27.90;99.90;;;;;;5441670;26;20221;-65
2024/04/08 14:16:23;;;;;;;0.80;0.73;;;28.50;99.90;;;;;;5440910;26;20281;-66
2024/04/08 14:19:13;;;;;;;1.90;0.93;;;28.50;99.90;;;;;;5451743;26;20276;-65
2024/04/08 14:22:02;;;;;;;1.48;0.85;;;28.20;99.90;;;;;;5442513;26;20634;-65
2024/04/08 14:24:51;;;;;;;2.80;1.00;;;28.20;99.90;;;;;;5432272;26;20628;-66
2024/04/08 14:27:38;;;;;;;1.75;0.95;;;28.20;99.90;;;;;;5443825;26;20628;-65
2024/04/08 14:30:27;;;;;;;1.92;0.98;;;27.80;99.90;;;;;;5450111;26;20720;-65
2024/04/08 14:33:17;;;;;;;1.15;0.95;;;27.80;99.90;;;;;;5456127;26;20293;-65
2024/04/08 14:36:07;;;;;;;3.53;1.05;;;27.50;99.90;;;;;;5441761;26;20281;-65
2024/04/08 14:38:56;;;;;;;2.78;1.00;;;27.50;99.90;;;;;;5431078;26;20234;-64